Terminal Aerodrome Forecast
Issued by NWS Sterling, VA

Current Version | Previous Version | Text Only | Print | Product List | Glossary Off
Versions: 1 2 3 4 5 6 7 8 9 10 11 12 13 14 15 16 17 18

000
FTUS41 KLWX 271737
TAFMRB
TAF
KMRB 271737Z 2718/2818 23012KT P6SM -SHRA VCTS BKN050CB BKN130
     FM272200 19006KT P6SM BKN050 BKN130
     FM280400 20004KT 3SM BR SCT050 BKN200
     FM280600 VRB03KT 2SM BR SCT050 BKN200
     FM281200 00000KT 3SM BR SCT050 BKN200
     FM281600 34004KT P6SM BKN050=

USA.gov is the U.S. government's official web portal to all federal, state and local government web resources and services.